Terminal Aerodrome Forecast
Issued by NWS

Home | Current Version | Previous Version | Text Only | Print | Product List | Glossary On
Versions: 1 2 3 4 5 6 7 8 9 10 11 12 13 14
000
FTUS43 KMPX 260500
TAFRNH
TAF
KRNH 260520Z 2606/2706 03005KT 6SM BR SCT015 OVC040
      TEMPO 2606/2610 4SM -SHSN BKN015
     FM261000 36007KT 6SM BR OVC008
     FM261800 34008KT P6SM OVC015
     FM270300 36006KT 4SM -SN BR OVC012=

USA.gov is the U.S. government's official web portal to all federal, state and local government web resources and services.